Time;durP1;ratioP1;P1;durP2;ratioP2;P2;SDS_P1;SDS_P2;PMS_P1;PMS_P2;Temp;Humidity;BMP_temperature;BMP_pressure;BME280_temperature;BME280_humidity;BME280_pressure;Samples;Min_cycle;Max_cycle;Signal;HPM_P1;HPM_P2
2023/11/28 00:01:49;;;;;;;16.27;10.70;;;;;;;;;;5007986;28;20476;-86
2023/11/28 00:04:14;;;;;;;15.73;11.77;;;;;;;;;;4997086;28;20487;-86
2023/11/28 00:06:41;;;;;;;15.50;11.40;;;;;;;;;;4990857;28;20465;-87
2023/11/28 00:09:07;;;;;;;17.10;13.10;;;;;;;;;;4997307;28;20239;-87
2023/11/28 00:11:34;;;;;;;16.63;11.77;;;;;;;;;;5001228;28;20456;-90
2023/11/28 00:14:02;;;;;;;17.50;13.20;;;;;;;;;;5008492;28;20487;-88
2023/11/28 00:16:28;;;;;;;21.70;12.87;;;;;;;;;;4985652;28;20713;-87
2023/11/28 00:18:55;;;;;;;21.03;14.30;;;;;;;;;;4996747;28;21082;-88
2023/11/28 00:21:22;;;;;;;21.00;14.30;;;;;;;;;;4996709;28;20492;-87
2023/11/28 00:23:48;;;;;;;17.83;12.40;;;;;;;;;;4994174;28;20463;-87
2023/11/28 00:26:15;;;;;;;17.93;13.70;;;;;;;;;;4997513;28;20488;-88
2023/11/28 00:28:41;;;;;;;19.85;14.15;;;;;;;;;;4998359;28;20486;-89
2023/11/28 00:31:09;;;;;;;19.77;12.25;;;;;;;;;;4993842;28;20843;-88
2023/11/28 00:33:35;;;;;;;21.60;14.60;;;;;;;;;;4995223;28;20297;-88
2023/11/28 00:36:02;;;;;;;17.52;12.25;;;;;;;;;;4988769;28;20504;-90
2023/11/28 00:38:28;;;;;;;20.23;13.67;;;;;;;;;;4997675;28;20212;-88
2023/11/28 00:40:55;;;;;;;16.73;12.00;;;;;;;;;;4996879;28;20523;-87
2023/11/28 00:43:21;;;;;;;18.15;12.75;;;;;;;;;;4998475;28;20526;-86
2023/11/28 00:45:48;;;;;;;18.23;12.20;;;;;;;;;;4995623;28;20304;-87
2023/11/28 00:48:16;;;;;;;16.63;12.30;;;;;;;;;;4992762;28;20492;-86
2023/11/28 00:50:42;;;;;;;18.42;12.30;;;;;;;;;;4997180;28;20468;-86
2023/11/28 00:53:09;;;;;;;15.17;10.57;;;;;;;;;;4994437;28;20307;-86
2023/11/28 00:55:35;;;;;;;14.27;11.30;;;;;;;;;;4997708;28;20484;-87
2023/11/28 00:58:02;;;;;;;19.20;13.10;;;;;;;;;;4996753;28;20543;-87
2023/11/28 01:00:29;;;;;;;12.97;10.40;;;;;;;;;;4992608;28;20464;-85
2023/11/28 01:02:55;;;;;;;17.60;12.47;;;;;;;;;;4985320;28;20547;-87
2023/11/28 01:05:23;;;;;;;16.95;13.48;;;;;;;;;;4997363;28;20488;-87
2023/11/28 01:07:49;;;;;;;16.70;11.93;;;;;;;;;;4997332;28;20268;-87
2023/11/28 01:10:16;;;;;;;17.40;11.93;;;;;;;;;;4993246;28;20533;-86
2023/11/28 01:12:42;;;;;;;14.43;12.20;;;;;;;;;;4987015;28;20515;-84
2023/11/28 01:15:09;;;;;;;16.37;11.53;;;;;;;;;;4993424;28;20519;-85
2023/11/28 01:17:35;;;;;;;17.10;12.27;;;;;;;;;;4993782;28;20523;-85
2023/11/28 01:20:02;;;;;;;20.25;13.32;;;;;;;;;;4990085;28;20567;-86
2023/11/28 01:22:30;;;;;;;19.10;12.53;;;;;;;;;;4999470;28;20236;-86
2023/11/28 01:24:56;;;;;;;18.17;13.03;;;;;;;;;;4991304;28;20514;-86
2023/11/28 01:27:22;;;;;;;18.87;12.90;;;;;;;;;;5003648;28;20586;-86
2023/11/28 01:29:49;;;;;;;15.90;10.90;;;;;;;;;;4993432;28;21058;-85
2023/11/28 01:32:15;;;;;;;14.93;11.80;;;;;;;;;;4983326;28;21076;-86
2023/11/28 01:34:41;;;;;;;15.55;10.90;;;;;;;;;;4996360;28;20588;-86
2023/11/28 01:37:08;;;;;;;16.38;13.43;;;;;;;;;;4985980;28;20209;-87
2023/11/28 01:39:36;;;;;;;13.33;10.00;;;;;;;;;;4993862;28;20655;-85
2023/11/28 01:42:02;;;;;;;16.57;11.83;;;;;;;;;;4995775;28;20462;-85
2023/11/28 01:44:29;;;;;;;14.05;10.60;;;;;;;;;;4997447;28;20584;-86
2023/11/28 01:46:55;;;;;;;14.25;11.48;;;;;;;;;;4997848;28;20284;-86
2023/11/28 01:49:21;;;;;;;12.73;10.80;;;;;;;;;;4996614;28;20275;-86
2023/11/28 01:51:48;;;;;;;13.57;10.48;;;;;;;;;;4996743;28;20539;-84
2023/11/28 01:54:15;;;;;;;12.87;9.80;;;;;;;;;;4992026;28;20239;-86
2023/11/28 01:56:43;;;;;;;17.20;11.43;;;;;;;;;;4994461;28;20527;-85
2023/11/28 01:59:10;;;;;;;12.67;10.23;;;;;;;;;;4993164;28;20447;-84
2023/11/28 02:01:36;;;;;;;15.83;10.20;;;;;;;;;;4995156;28;20483;-85
2023/11/28 02:04:03;;;;;;;13.10;9.47;;;;;;;;;;5001898;28;20526;-85
2023/11/28 02:06:30;;;;;;;12.43;8.90;;;;;;;;;;4999622;28;20509;-87
2023/11/28 02:08:56;;;;;;;14.98;9.85;;;;;;;;;;4987738;28;21064;-86
2023/11/28 02:11:23;;;;;;;15.20;8.80;;;;;;;;;;4993419;28;20244;-85
2023/11/28 02:13:51;;;;;;;11.25;7.03;;;;;;;;;;4998868;28;20583;-85
2023/11/28 02:16:18;;;;;;;10.65;7.95;;;;;;;;;;5000137;28;20254;-87
2023/11/28 02:18:44;;;;;;;9.30;7.47;;;;;;;;;;4997187;28;20669;-85
2023/11/28 02:21:11;;;;;;;13.20;9.47;;;;;;;;;;4998957;28;20339;-87
2023/11/28 02:23:38;;;;;;;12.05;9.63;;;;;;;;;;4997364;28;20491;-86
2023/11/28 02:26:05;;;;;;;13.50;8.33;;;;;;;;;;4995754;28;20221;-86
2023/11/28 02:28:33;;;;;;;12.80;8.57;;;;;;;;;;5000748;28;20460;-86
2023/11/28 02:30:59;;;;;;;11.90;8.90;;;;;;;;;;4993574;28;20555;-86
2023/11/28 02:33:26;;;;;;;12.60;9.75;;;;;;;;;;4993991;28;20567;-85
2023/11/28 02:35:53;;;;;;;13.67;9.50;;;;;;;;;;4996100;28;20283;-85
2023/11/28 02:38:19;;;;;;;10.53;8.43;;;;;;;;;;5001746;28;20502;-85
2023/11/28 02:40:45;;;;;;;13.43;10.20;;;;;;;;;;4998644;28;20512;-86
2023/11/28 02:43:12;;;;;;;11.48;9.02;;;;;;;;;;4995656;28;20501;-85
2023/11/28 02:45:44;;;;;;;12.50;10.33;;;;;;;;;;4992334;28;20858;-86
2023/11/28 02:48:10;;;;;;;14.77;9.50;;;;;;;;;;4999111;28;20490;-86
2023/11/28 02:50:37;;;;;;;14.93;9.13;;;;;;;;;;4995911;28;20249;-86
2023/11/28 02:53:04;;;;;;;15.27;9.80;;;;;;;;;;4998502;28;21190;-85
2023/11/28 02:55:30;;;;;;;15.37;9.80;;;;;;;;;;4999899;28;20519;-86
2023/11/28 02:57:57;;;;;;;15.67;11.00;;;;;;;;;;4993878;28;20583;-85
2023/11/28 03:00:23;;;;;;;19.37;11.77;;;;;;;;;;4999299;28;20478;-86
2023/11/28 03:02:51;;;;;;;16.90;11.43;;;;;;;;;;4997210;28;21093;-85
2023/11/28 03:05:17;;;;;;;18.65;11.55;;;;;;;;;;4995855;28;20221;-85
2023/11/28 03:07:43;;;;;;;15.30;11.20;;;;;;;;;;4995398;28;20685;-88
2023/11/28 03:10:10;;;;;;;25.57;12.83;;;;;;;;;;4993191;28;20552;-85
2023/11/28 03:12:36;;;;;;;16.03;11.87;;;;;;;;;;4989258;28;20895;-84
2023/11/28 03:15:03;;;;;;;18.90;11.00;;;;;;;;;;4997915;28;20460;-85
2023/11/28 03:17:29;;;;;;;20.23;12.07;;;;;;;;;;4999128;28;20516;-85
2023/11/28 03:19:57;;;;;;;20.57;11.40;;;;;;;;;;4999553;28;20559;-85
2023/11/28 03:22:24;;;;;;;22.80;12.13;;;;;;;;;;4994409;28;20585;-85
2023/11/28 03:24:51;;;;;;;20.00;12.77;;;;;;;;;;4995054;28;20539;-84
2023/11/28 03:27:18;;;;;;;21.33;13.77;;;;;;;;;;5000028;28;20498;-85
2023/11/28 03:29:45;;;;;;;20.37;11.50;;;;;;;;;;4995806;28;20219;-85
2023/11/28 03:32:11;;;;;;;20.23;11.45;;;;;;;;;;4998219;28;20487;-85
2023/11/28 03:34:39;;;;;;;19.02;11.02;;;;;;;;;;4995550;28;20327;-85
2023/11/28 03:37:07;;;;;;;17.30;12.20;;;;;;;;;;4997704;28;20279;-85
2023/11/28 03:39:33;;;;;;;18.33;12.25;;;;;;;;;;4989966;28;20559;-85
2023/11/28 03:41:59;;;;;;;19.37;11.97;;;;;;;;;;4990018;28;20258;-86
2023/11/28 03:44:26;;;;;;;19.88;11.48;;;;;;;;;;4996657;28;20532;-84
2023/11/28 03:46:52;;;;;;;26.55;11.88;;;;;;;;;;4996316;28;20277;-85
2023/11/28 03:49:19;;;;;;;19.25;12.35;;;;;;;;;;4997709;28;20244;-86
2023/11/28 03:51:45;;;;;;;22.80;11.77;;;;;;;;;;4993889;28;20311;-85
2023/11/28 03:54:13;;;;;;;20.20;12.00;;;;;;;;;;4994506;28;20327;-85
2023/11/28 03:56:42;;;;;;;20.70;11.70;;;;;;;;;;4996479;28;20212;-83
2023/11/28 03:59:08;;;;;;;22.83;13.35;;;;;;;;;;4996624;28;20235;-84
2023/11/28 04:01:35;;;;;;;18.40;11.35;;;;;;;;;;4995953;28;20299;-82
2023/11/28 04:04:02;;;;;;;23.65;12.40;;;;;;;;;;4995411;28;20241;-81
2023/11/28 04:06:28;;;;;;;24.83;13.70;;;;;;;;;;4999490;28;20216;-82
2023/11/28 04:08:54;;;;;;;18.70;11.57;;;;;;;;;;4999482;28;20240;-82
2023/11/28 04:11:22;;;;;;;19.83;10.67;;;;;;;;;;4996012;28;20276;-83
2023/11/28 04:13:49;;;;;;;17.95;10.75;;;;;;;;;;4999739;28;20578;-85
2023/11/28 04:16:16;;;;;;;22.13;14.02;;;;;;;;;;4987449;28;20272;-84
2023/11/28 04:18:42;;;;;;;32.03;13.73;;;;;;;;;;4986526;28;20213;-85
2023/11/28 04:21:14;;;;;;;20.75;12.55;;;;;;;;;;4994769;28;20616;-85
2023/11/28 04:23:40;;;;;;;26.38;13.48;;;;;;;;;;4997299;28;20276;-83
2023/11/28 04:26:07;;;;;;;26.70;11.67;;;;;;;;;;4997277;28;20220;-83
2023/11/28 04:28:35;;;;;;;27.02;14.20;;;;;;;;;;4998036;28;20474;-84
2023/11/28 04:31:01;;;;;;;25.17;13.63;;;;;;;;;;4991402;28;20227;-85
2023/11/28 04:33:29;;;;;;;18.27;11.13;;;;;;;;;;4998753;28;20260;-83
2023/11/28 04:35:55;;;;;;;24.73;12.80;;;;;;;;;;4998957;28;20582;-83
2023/11/28 04:38:22;;;;;;;21.25;11.55;;;;;;;;;;4998966;28;20491;-83
2023/11/28 04:40:49;;;;;;;21.93;14.00;;;;;;;;;;4994396;28;20691;-83
2023/11/28 04:43:16;;;;;;;17.70;11.00;;;;;;;;;;5000615;28;20519;-83
2023/11/28 04:45:44;;;;;;;22.07;11.87;;;;;;;;;;5000790;28;20490;-82
2023/11/28 04:48:10;;;;;;;24.00;12.73;;;;;;;;;;5000519;28;20562;-81
2023/11/28 04:50:36;;;;;;;25.35;12.30;;;;;;;;;;4993932;28;20480;-82
2023/11/28 04:53:03;;;;;;;24.85;14.82;;;;;;;;;;4992747;28;20243;-83
2023/11/28 04:55:30;;;;;;;20.97;12.67;;;;;;;;;;4991547;28;20307;-84
2023/11/28 04:57:56;;;;;;;26.65;13.18;;;;;;;;;;5009214;28;20440;-79
2023/11/28 05:00:23;;;;;;;28.63;13.67;;;;;;;;;;5009067;28;20325;-81
2023/11/28 05:02:50;;;;;;;20.17;11.50;;;;;;;;;;5007478;28;20506;-82
2023/11/28 05:05:17;;;;;;;20.65;11.75;;;;;;;;;;5006780;28;20443;-81
2023/11/28 05:07:43;;;;;;;23.52;11.85;;;;;;;;;;5011223;28;20204;-82
2023/11/28 05:10:10;;;;;;;21.15;12.70;;;;;;;;;;5011785;28;20212;-82
2023/11/28 05:12:36;;;;;;;21.90;12.18;;;;;;;;;;5011143;28;20219;-83
2023/11/28 05:15:04;;;;;;;24.33;11.55;;;;;;;;;;5003356;28;20553;-84
2023/11/28 05:17:30;;;;;;;23.77;11.17;;;;;;;;;;4997997;28;20212;-81
2023/11/28 05:19:58;;;;;;;20.60;12.50;;;;;;;;;;5005332;28;20566;-83
2023/11/28 05:22:25;;;;;;;26.33;12.93;;;;;;;;;;4998839;28;20459;-81
2023/11/28 05:24:51;;;;;;;19.10;10.57;;;;;;;;;;5001213;28;20458;-81
2023/11/28 05:27:18;;;;;;;18.00;11.15;;;;;;;;;;4998846;28;20483;-82
2023/11/28 05:29:44;;;;;;;29.77;12.80;;;;;;;;;;5000394;28;20240;-82
2023/11/28 05:32:10;;;;;;;18.70;10.75;;;;;;;;;;4995598;28;20551;-82
2023/11/28 05:34:37;;;;;;;19.83;9.98;;;;;;;;;;4996455;28;20265;-80
2023/11/28 05:37:05;;;;;;;22.07;12.10;;;;;;;;;;5001145;28;20212;-81
2023/11/28 05:39:31;;;;;;;19.40;12.60;;;;;;;;;;5003404;28;20470;-81
2023/11/28 05:41:58;;;;;;;19.27;11.70;;;;;;;;;;5002891;28;20494;-82
2023/11/28 05:44:24;;;;;;;23.20;12.30;;;;;;;;;;4996043;28;20539;-82
2023/11/28 05:46:51;;;;;;;22.03;11.77;;;;;;;;;;4998308;28;20489;-80
2023/11/28 05:49:17;;;;;;;25.13;12.67;;;;;;;;;;4999368;28;20506;-80
2023/11/28 05:51:44;;;;;;;22.42;11.82;;;;;;;;;;5003314;28;20453;-80
2023/11/28 05:54:11;;;;;;;21.95;11.70;;;;;;;;;;4996247;28;20851;-80
2023/11/28 05:56:38;;;;;;;21.63;10.83;;;;;;;;;;4998899;28;20284;-81
2023/11/28 05:59:04;;;;;;;24.67;10.93;;;;;;;;;;4998078;28;20481;-80
2023/11/28 06:01:31;;;;;;;23.88;12.75;;;;;;;;;;4999607;28;20220;-81
2023/11/28 06:03:57;;;;;;;22.33;11.38;;;;;;;;;;4989045;28;20296;-80
2023/11/28 06:06:24;;;;;;;19.95;11.27;;;;;;;;;;5002758;28;20379;-80
2023/11/28 06:08:50;;;;;;;16.77;10.30;;;;;;;;;;4995629;28;20308;-79
2023/11/28 06:11:18;;;;;;;20.13;10.60;;;;;;;;;;4992902;28;20466;-81
2023/11/28 06:13:44;;;;;;;24.30;10.35;;;;;;;;;;4988748;28;21046;-80
2023/11/28 06:16:13;;;;;;;17.92;9.65;;;;;;;;;;4995980;28;20211;-80
2023/11/28 06:18:39;;;;;;;18.15;10.45;;;;;;;;;;5001396;28;20616;-80
2023/11/28 06:21:07;;;;;;;18.15;10.23;;;;;;;;;;4998466;28;20769;-80
2023/11/28 06:23:34;;;;;;;15.95;9.25;;;;;;;;;;4997458;28;20212;-79
2023/11/28 06:26:00;;;;;;;17.83;10.10;;;;;;;;;;4990329;28;20280;-81
2023/11/28 06:28:28;;;;;;;12.23;8.82;;;;;;;;;;5002203;28;20555;-81
2023/11/28 06:30:54;;;;;;;13.38;7.97;;;;;;;;;;4997355;28;20216;-79
2023/11/28 06:33:21;;;;;;;15.73;8.50;;;;;;;;;;4991494;28;20213;-83
2023/11/28 06:35:47;;;;;;;11.57;7.53;;;;;;;;;;4992023;28;20268;-80
2023/11/28 06:38:14;;;;;;;12.45;8.95;;;;;;;;;;4994545;28;20432;-83
2023/11/28 06:40:40;;;;;;;13.07;7.80;;;;;;;;;;4995574;28;20213;-85
2023/11/28 06:43:07;;;;;;;10.68;7.47;;;;;;;;;;5000698;28;21006;-85
2023/11/28 06:45:35;;;;;;;10.40;6.93;;;;;;;;;;5001428;28;20287;-86
2023/11/28 06:48:03;;;;;;;11.60;7.32;;;;;;;;;;4993802;28;20212;-86
2023/11/28 06:50:29;;;;;;;6.50;5.65;;;;;;;;;;5001854;28;20619;-86
2023/11/28 06:52:56;;;;;;;8.93;6.30;;;;;;;;;;5005084;28;20813;-84
2023/11/28 06:55:22;;;;;;;9.60;6.80;;;;;;;;;;5005850;28;20252;-88
2023/11/28 06:57:48;;;;;;;10.68;6.57;;;;;;;;;;5012396;28;20243;-87
2023/11/28 07:00:15;;;;;;;8.70;6.65;;;;;;;;;;4996514;28;20244;-86
2023/11/28 07:02:43;;;;;;;8.50;5.30;;;;;;;;;;5004074;28;20215;-85
2023/11/28 07:05:09;;;;;;;8.85;5.90;;;;;;;;;;5012212;28;20781;-85
2023/11/28 07:07:36;;;;;;;8.63;6.90;;;;;;;;;;4999855;28;20736;-85
2023/11/28 07:10:05;;;;;;;8.50;6.25;;;;;;;;;;5003081;28;20239;-85
2023/11/28 07:12:31;;;;;;;7.18;6.38;;;;;;;;;;5004059;28;20291;-82
2023/11/28 07:14:57;;;;;;;7.35;6.63;;;;;;;;;;5000196;28;20263;-84
2023/11/28 07:17:25;;;;;;;6.03;5.20;;;;;;;;;;4998790;28;20302;-87
2023/11/28 07:19:53;;;;;;;9.10;6.05;;;;;;;;;;5008551;28;20462;-83
2023/11/28 07:22:20;;;;;;;10.82;5.30;;;;;;;;;;5001102;28;20399;-85
2023/11/28 07:24:47;;;;;;;7.30;6.00;;;;;;;;;;5000696;28;20248;-83
2023/11/28 07:27:13;;;;;;;7.43;6.15;;;;;;;;;;5012202;28;20279;-83
2023/11/28 07:29:40;;;;;;;10.88;6.47;;;;;;;;;;5004990;28;20309;-83
2023/11/28 07:32:06;;;;;;;8.65;6.50;;;;;;;;;;5004664;28;20247;-83
2023/11/28 07:34:34;;;;;;;7.82;6.13;;;;;;;;;;4993392;28;20272;-84
2023/11/28 07:37:03;;;;;;;8.55;5.82;;;;;;;;;;4988582;28;20220;-83
2023/11/28 07:39:28;;;;;;;6.13;5.53;;;;;;;;;;4989241;28;20346;-83
2023/11/28 07:41:55;;;;;;;8.10;6.40;;;;;;;;;;4991195;28;20836;-83
2023/11/28 07:44:21;;;;;;;6.00;5.05;;;;;;;;;;4995753;28;20232;-84
2023/11/28 07:46:47;;;;;;;7.80;5.90;;;;;;;;;;4999393;28;20279;-82
2023/11/28 07:49:14;;;;;;;6.93;6.27;;;;;;;;;;5003945;28;20240;-81
2023/11/28 07:51:40;;;;;;;9.02;6.80;;;;;;;;;;5002544;28;20867;-82
2023/11/28 07:54:08;;;;;;;5.95;5.32;;;;;;;;;;5003689;28;20258;-83
2023/11/28 07:56:35;;;;;;;7.88;6.45;;;;;;;;;;4997779;28;20213;-83
2023/11/28 07:59:01;;;;;;;8.43;6.25;;;;;;;;;;5008730;28;20217;-81
2023/11/28 08:01:28;;;;;;;8.32;6.32;;;;;;;;;;4997304;28;20224;-80
2023/11/28 08:03:54;;;;;;;7.18;6.47;;;;;;;;;;5005283;28;20240;-82
2023/11/28 08:06:21;;;;;;;8.73;5.85;;;;;;;;;;5003560;28;20479;-81
2023/11/28 08:08:47;;;;;;;7.20;6.00;;;;;;;;;;4996966;28;20205;-82
2023/11/28 08:11:14;;;;;;;9.35;6.53;;;;;;;;;;4999956;28;20243;-83
2023/11/28 08:13:40;;;;;;;9.88;8.27;;;;;;;;;;4998375;28;20240;-82
2023/11/28 08:16:07;;;;;;;9.70;6.70;;;;;;;;;;5005749;28;20495;-83
2023/11/28 08:18:34;;;;;;;6.70;5.75;;;;;;;;;;4996836;28;20208;-83
2023/11/28 08:21:02;;;;;;;9.02;6.20;;;;;;;;;;4996925;28;20220;-85
2023/11/28 08:23:28;;;;;;;17.77;10.45;;;;;;;;;;4993864;28;20929;-84
2023/11/28 08:25:55;;;;;;;8.35;6.25;;;;;;;;;;4988053;28;20220;-83
2023/11/28 08:28:23;;;;;;;6.32;5.55;;;;;;;;;;4999404;28;20223;-84
2023/11/28 08:30:50;;;;;;;16.60;10.57;;;;;;;;;;4994842;28;20216;-83
2023/11/28 08:33:17;;;;;;;9.15;7.57;;;;;;;;;;4994949;28;20454;-84
2023/11/28 08:35:44;;;;;;;8.83;7.30;;;;;;;;;;4995686;28;20236;-84
2023/11/28 08:38:10;;;;;;;6.88;5.40;;;;;;;;;;4998266;28;20462;-83
2023/11/28 08:40:37;;;;;;;7.93;6.05;;;;;;;;;;4997222;28;20213;-83
2023/11/28 08:43:04;;;;;;;7.30;6.13;;;;;;;;;;4995826;28;20220;-83
2023/11/28 08:45:32;;;;;;;6.38;5.78;;;;;;;;;;5002358;28;20212;-84
2023/11/28 08:47:58;;;;;;;6.30;4.95;;;;;;;;;;4996829;28;20208;-82
2023/11/28 08:50:25;;;;;;;9.80;6.07;;;;;;;;;;4993372;28;20236;-80
2023/11/28 08:52:51;;;;;;;8.37;6.90;;;;;;;;;;4987097;28;20642;-80
2023/11/28 08:55:18;;;;;;;7.80;6.90;;;;;;;;;;4998689;28;20511;-80
2023/11/28 08:57:45;;;;;;;7.88;5.43;;;;;;;;;;4998939;28;20467;-80
2023/11/28 09:00:13;;;;;;;6.88;6.18;;;;;;;;;;4999367;28;20877;-85
2023/11/28 09:02:42;;;;;;;6.73;5.63;;;;;;;;;;4991838;28;20220;-86
2023/11/28 09:05:09;;;;;;;7.40;5.50;;;;;;;;;;4996925;28;20574;-82
2023/11/28 09:07:36;;;;;;;6.20;5.60;;;;;;;;;;4993394;28;20462;-84
2023/11/28 09:10:02;;;;;;;7.87;6.83;;;;;;;;;;4996296;28;20279;-83
2023/11/28 09:12:29;;;;;;;7.40;6.05;;;;;;;;;;4999840;28;20467;-83
2023/11/28 09:14:55;;;;;;;7.73;6.30;;;;;;;;;;4993059;28;20240;-83
2023/11/28 09:17:22;;;;;;;6.23;5.63;;;;;;;;;;5002258;28;20455;-82
2023/11/28 09:19:50;;;;;;;7.67;6.57;;;;;;;;;;5007017;28;20463;-80
2023/11/28 09:22:17;;;;;;;8.63;5.13;;;;;;;;;;4994666;28;20456;-83
2023/11/28 09:24:44;;;;;;;5.20;4.70;;;;;;;;;;4996627;28;20523;-84
2023/11/28 09:27:12;;;;;;;7.70;5.63;;;;;;;;;;5005665;28;20517;-84
2023/11/28 09:29:38;;;;;;;6.60;6.00;;;;;;;;;;4990388;28;20464;-81
2023/11/28 09:32:06;;;;;;;6.50;5.80;;;;;;;;;;5001913;28;20463;-81
2023/11/28 09:34:32;;;;;;;6.67;5.97;;;;;;;;;;4993527;28;20460;-81
2023/11/28 09:37:01;;;;;;;6.87;6.27;;;;;;;;;;4994052;28;20479;-81
2023/11/28 09:39:27;;;;;;;6.40;5.57;;;;;;;;;;4998158;28;20507;-82
2023/11/28 09:41:54;;;;;;;6.10;5.50;;;;;;;;;;5002998;28;20487;-79
2023/11/28 09:44:25;;;;;;;6.37;5.87;;;;;;;;;;4999260;28;20482;-82
2023/11/28 09:46:52;;;;;;;6.27;5.77;;;;;;;;;;4999784;28;20460;-84
2023/11/28 09:49:19;;;;;;;6.13;5.63;;;;;;;;;;4997090;28;21077;-83
2023/11/28 09:51:46;;;;;;;7.07;6.30;;;;;;;;;;4991352;28;20460;-86
2023/11/28 09:54:16;;;;;;;6.10;5.60;;;;;;;;;;5000789;28;20527;-87
2023/11/28 09:56:44;;;;;;;6.03;5.53;;;;;;;;;;4995634;28;20483;-84
2023/11/28 09:59:12;;;;;;;8.63;6.83;;;;;;;;;;5000910;28;20883;-85
2023/11/28 10:01:40;;;;;;;6.60;6.10;;;;;;;;;;4995070;28;20464;-86
2023/11/28 10:04:06;;;;;;;7.43;6.83;;;;;;;;;;4997996;28;20542;-84
2023/11/28 10:06:33;;;;;;;6.63;6.23;;;;;;;;;;4997305;28;20488;-82
2023/11/28 10:09:01;;;;;;;7.57;6.97;;;;;;;;;;5001161;28;21000;-84
2023/11/28 10:11:31;;;;;;;7.40;6.90;;;;;;;;;;5000682;28;20490;-84
2023/11/28 10:13:57;;;;;;;6.50;6.10;;;;;;;;;;4986578;28;20480;-83
2023/11/28 10:16:39;;;;;;;7.20;6.80;;;;;;;;;;4993731;28;20558;-88
2023/11/28 10:19:07;;;;;;;7.40;6.90;;;;;;;;;;5002140;28;20455;-87
2023/11/28 10:21:35;;;;;;;8.03;7.43;;;;;;;;;;5006444;28;20455;-87
2023/11/28 10:24:01;;;;;;;7.50;7.00;;;;;;;;;;5000475;28;20506;-87
2023/11/28 10:26:29;;;;;;;8.17;7.57;;;;;;;;;;5005211;28;20471;-85
2023/11/28 10:28:57;;;;;;;7.90;7.20;;;;;;;;;;4998724;28;20471;-87
2023/11/28 10:31:24;;;;;;;8.03;7.43;;;;;;;;;;5000434;28;20460;-85
2023/11/28 10:33:51;;;;;;;7.00;6.50;;;;;;;;;;4998477;28;20460;-87
2023/11/28 10:36:18;;;;;;;8.20;7.50;;;;;;;;;;4997081;28;20502;-86
2023/11/28 10:38:44;;;;;;;9.10;7.30;;;;;;;;;;4999389;28;20844;-89
2023/11/28 10:41:11;;;;;;;8.67;7.90;;;;;;;;;;5003068;28;20468;-86
2023/11/28 10:43:37;;;;;;;7.80;7.20;;;;;;;;;;4993102;28;20484;-88
2023/11/28 10:46:16;;;;;;;8.10;7.50;;;;;;;;;;4999273;28;20460;-88
2023/11/28 10:48:42;;;;;;;8.07;7.40;;;;;;;;;;4997619;28;20572;-91
2023/11/28 10:51:10;;;;;;;8.23;7.73;;;;;;;;;;5002900;28;20466;-87
2023/11/28 10:53:36;;;;;;;26.00;15.53;;;;;;;;;;4998593;28;20459;-87
2023/11/28 10:56:03;;;;;;;9.50;8.70;;;;;;;;;;5006134;28;20510;-87
2023/11/28 10:58:31;;;;;;;8.03;7.43;;;;;;;;;;5002043;28;20501;-86
2023/11/28 11:01:02;;;;;;;8.63;7.93;;;;;;;;;;5002145;28;20453;-87
2023/11/28 11:03:31;;;;;;;8.97;8.27;;;;;;;;;;4999695;28;20475;-87
2023/11/28 11:05:57;;;;;;;8.13;7.60;;;;;;;;;;4995415;28;20822;-86
2023/11/28 11:08:24;;;;;;;8.80;8.10;;;;;;;;;;4999381;28;21099;-86
2023/11/28 11:10:51;;;;;;;8.50;7.80;;;;;;;;;;4996264;28;20472;-88
2023/11/28 11:13:22;;;;;;;9.70;9.10;;;;;;;;;;4996242;28;20492;-86
2023/11/28 11:15:52;;;;;;;8.03;7.53;;;;;;;;;;4996045;28;20491;-86
2023/11/28 11:18:26;;;;;;;7.90;7.30;;;;;;;;;;4994821;28;20451;-86
2023/11/28 11:20:56;;;;;;;9.40;8.60;;;;;;;;;;4990779;28;20479;-86
2023/11/28 11:23:24;;;;;;;11.30;10.33;;;;;;;;;;4995127;28;20460;-86
2023/11/28 11:25:52;;;;;;;11.90;11.00;;;;;;;;;;4993636;28;20467;-84
2023/11/28 11:28:19;;;;;;;9.20;8.30;;;;;;;;;;4991794;28;20464;-84
2023/11/28 11:30:46;;;;;;;8.20;7.60;;;;;;;;;;4992131;28;20899;-83
2023/11/28 11:33:12;;;;;;;8.47;7.60;;;;;;;;;;4992768;28;20932;-83
2023/11/28 11:35:57;;;;;;;7.90;7.30;;;;;;;;;;4995918;28;20698;-84
2023/11/28 11:38:28;;;;;;;8.37;7.77;;;;;;;;;;4992778;28;20510;-83
2023/11/28 11:40:55;;;;;;;8.80;8.00;;;;;;;;;;4992064;28;20459;-83
2023/11/28 11:43:21;;;;;;;8.17;7.63;;;;;;;;;;4994500;28;20523;-83
2023/11/28 11:45:48;;;;;;;9.53;7.83;;;;;;;;;;4996602;28;20510;-84
2023/11/28 11:48:14;;;;;;;8.53;7.93;;;;;;;;;;4994467;28;20526;-83
2023/11/28 11:50:41;;;;;;;10.10;7.37;;;;;;;;;;4997311;28;20558;-83
2023/11/28 11:53:08;;;;;;;7.13;6.63;;;;;;;;;;4993655;28;20486;-84
2023/11/28 11:55:36;;;;;;;8.20;7.50;;;;;;;;;;4998646;28;20559;-82
2023/11/28 11:58:02;;;;;;;8.03;7.40;;;;;;;;;;4996541;28;20452;-81
2023/11/28 12:00:29;;;;;;;8.17;7.57;;;;;;;;;;4999528;28;20507;-81
2023/11/28 12:02:59;;;;;;;8.03;7.33;;;;;;;;;;4986811;28;20503;-82
2023/11/28 12:05:25;;;;;;;8.10;7.50;;;;;;;;;;5006692;28;20470;-82
2023/11/28 12:07:53;;;;;;;7.97;7.17;;;;;;;;;;4999453;28;20459;-82
2023/11/28 12:10:19;;;;;;;8.50;7.70;;;;;;;;;;4997882;28;20484;-82
2023/11/28 12:12:47;;;;;;;7.33;6.73;;;;;;;;;;5006482;28;20490;-84
2023/11/28 12:15:14;;;;;;;7.47;6.97;;;;;;;;;;5000055;28;20463;-82
2023/11/28 12:17:41;;;;;;;8.63;7.77;;;;;;;;;;4999270;28;20471;-83
2023/11/28 12:20:08;;;;;;;7.27;6.77;;;;;;;;;;4997462;28;20485;-81
2023/11/28 12:22:35;;;;;;;8.57;7.87;;;;;;;;;;4998782;28;20464;-85
2023/11/28 12:25:01;;;;;;;10.30;7.17;;;;;;;;;;5001084;28;20451;-82
2023/11/28 12:27:28;;;;;;;8.10;7.50;;;;;;;;;;4999412;28;20470;-82
2023/11/28 12:29:55;;;;;;;7.90;7.40;;;;;;;;;;4996333;28;20515;-82
2023/11/28 12:32:22;;;;;;;7.67;7.07;;;;;;;;;;4993246;28;20490;-82
2023/11/28 12:34:50;;;;;;;7.13;6.63;;;;;;;;;;5006566;28;20977;-82
2023/11/28 12:37:20;;;;;;;7.90;7.20;;;;;;;;;;5003154;28;20499;-84
2023/11/28 12:39:46;;;;;;;8.60;8.00;;;;;;;;;;4995474;28;20459;-80
2023/11/28 12:42:14;;;;;;;9.10;8.40;;;;;;;;;;5000706;28;20456;-81
2023/11/28 12:44:41;;;;;;;10.23;9.60;;;;;;;;;;4999525;28;20500;-81
2023/11/28 12:47:12;;;;;;;10.63;9.80;;;;;;;;;;5001473;28;20455;-81
2023/11/28 12:49:40;;;;;;;11.70;10.80;;;;;;;;;;4999187;28;20498;-82
2023/11/28 12:52:08;;;;;;;9.80;9.20;;;;;;;;;;5003947;28;20474;-81
2023/11/28 12:54:35;;;;;;;8.50;8.00;;;;;;;;;;4996009;28;20487;-81
2023/11/28 12:57:01;;;;;;;7.70;7.20;;;;;;;;;;4995734;28;20495;-81
2023/11/28 12:59:27;;;;;;;7.67;6.97;;;;;;;;;;4995010;28;20487;-83
2023/11/28 13:01:54;;;;;;;8.67;8.07;;;;;;;;;;4998197;28;20523;-83
2023/11/28 13:04:22;;;;;;;7.93;7.10;;;;;;;;;;4993659;28;20456;-81
2023/11/28 13:06:50;;;;;;;8.27;7.60;;;;;;;;;;4994917;28;20464;-82
2023/11/28 13:09:18;;;;;;;7.83;7.33;;;;;;;;;;5001808;28;20467;-81
2023/11/28 13:11:44;;;;;;;8.20;7.50;;;;;;;;;;4989229;28;20488;-82
2023/11/28 13:14:11;;;;;;;8.27;7.77;;;;;;;;;;4997356;28;20471;-80
2023/11/28 13:16:37;;;;;;;7.37;6.87;;;;;;;;;;4996862;28;20483;-80
2023/11/28 13:19:05;;;;;;;9.00;8.30;;;;;;;;;;4992546;28;20455;-83
2023/11/28 13:21:35;;;;;;;7.83;7.33;;;;;;;;;;4992933;28;20461;-82
2023/11/28 13:24:02;;;;;;;7.87;7.37;;;;;;;;;;5003250;28;20947;-81
2023/11/28 13:26:28;;;;;;;9.60;8.20;;;;;;;;;;4995660;28;20979;-80
2023/11/28 13:28:55;;;;;;;7.80;7.27;;;;;;;;;;4997589;28;20567;-82
2023/11/28 13:31:21;;;;;;;7.43;6.93;;;;;;;;;;4995406;28;21038;-82
2023/11/28 13:33:49;;;;;;;7.93;7.13;;;;;;;;;;4999713;28;20467;-81
2023/11/28 13:36:16;;;;;;;8.20;7.50;;;;;;;;;;5004080;28;20496;-82
2023/11/28 13:38:44;;;;;;;7.67;7.07;;;;;;;;;;4987710;28;21028;-80
2023/11/28 13:41:10;;;;;;;9.40;8.70;;;;;;;;;;4998089;28;20464;-80
2023/11/28 13:43:39;;;;;;;8.87;7.90;;;;;;;;;;4993836;28;20903;-80
2023/11/28 13:46:06;;;;;;;8.40;7.60;;;;;;;;;;4993408;28;20944;-82
2023/11/28 13:48:32;;;;;;;8.20;7.60;;;;;;;;;;4989355;28;20502;-80
2023/11/28 13:50:59;;;;;;;8.60;7.80;;;;;;;;;;4987086;28;20462;-81
2023/11/28 13:53:26;;;;;;;7.33;6.83;;;;;;;;;;4989471;28;20455;-81
2023/11/28 13:55:56;;;;;;;8.30;7.70;;;;;;;;;;4993774;28;20502;-81
2023/11/28 13:58:23;;;;;;;8.83;8.10;;;;;;;;;;4994001;28;20476;-81
2023/11/28 14:00:49;;;;;;;8.27;7.57;;;;;;;;;;4997008;28;20556;-81
2023/11/28 14:03:15;;;;;;;7.80;7.10;;;;;;;;;;5001525;28;20894;-82
2023/11/28 14:05:42;;;;;;;7.67;6.97;;;;;;;;;;5002087;28;20440;-83
2023/11/28 14:08:08;;;;;;;8.23;7.53;;;;;;;;;;5008863;28;20836;-81
2023/11/28 14:10:35;;;;;;;7.47;6.97;;;;;;;;;;5006848;28;20450;-82
2023/11/28 14:13:03;;;;;;;8.83;8.23;;;;;;;;;;5005058;28;20510;-81
2023/11/28 14:15:30;;;;;;;8.47;7.67;;;;;;;;;;5003382;28;20709;-82
2023/11/28 14:17:57;;;;;;;8.10;7.50;;;;;;;;;;4998783;28;20907;-84
2023/11/28 14:20:23;;;;;;;8.37;7.77;;;;;;;;;;4998680;28;21033;-85
2023/11/28 14:22:50;;;;;;;8.23;7.57;;;;;;;;;;4999465;28;20460;-84
2023/11/28 14:25:17;;;;;;;8.40;7.60;;;;;;;;;;5004369;28;21028;-87
2023/11/28 14:27:44;;;;;;;7.97;7.37;;;;;;;;;;5002430;28;20455;-87
2023/11/28 14:30:13;;;;;;;7.77;7.17;;;;;;;;;;4995899;28;20480;-86